Latest Weather Observations for Hughenden

IDQ60801

Issued at 12:32 pm EST Tuesday 25 July 2017 (issued every 30 minutes, with the page automatically refreshed every 10 minutes)

About weather observations | Map of weather stations | Latest weather observations for QLD | Other Formats
Station Details ID: 030022 Name: HUGHENDEN AIRPORT Lat: -20.82 Lon: 144.23 Height: 316.4 m
Data from the previous 72 hours. | See also: Recent months at Hughenden
Date/Time
EST
Temp
°C
App
Temp
°C
Dew
Point
°C
Rel
Hum
%
Delta-T
°C
Wind Press
QNH
hPa
Press
MSL
hPa
Rain since
9am
mm
Dir  Spd
km/h
Gust
km/h
Spd
kts
Gust
kts
25/12:30pm 25.4 20.3 6.1 29 10.1 E 22 32 12 17 1019.4 1018.7 0.0
25/12:00pm 24.3 18.8 6.1 31 9.4 E 24 32 13 17 1020.2 1019.4 0.0
25/11:30am 23.6 17.8 6.4 33 9.0 E 26 32 14 17 1020.8 1020.0 0.0
25/11:00am 23.0 17.1 7.5 37 8.2 ENE 28 37 15 20 1021.1 1020.4 0.0
25/10:30am 22.7 16.4 9.1 42 7.4 E 32 37 17 20 1021.4 1020.7 0.0
25/10:00am 22.0 16.1 9.2 44 6.9 ENE 30 39 16 21 1021.6 1020.9 0.0
25/09:30am 21.2 16.3 10.1 49 6.1 ENE 26 33 14 18 1021.6 1020.9 0.0
25/09:00am 20.2 16.8 11.1 56 5.0 ENE 20 35 11 19 1021.6 1020.9 0.0
25/08:30am 19.1 15.9 11.9 63 4.0 E 20 24 11 13 1021.5 1020.8 0.0
25/08:00am 17.9 15.2 11.7 67 3.4 E 17 24 9 13 1021.4 1020.7 0.0
25/07:30am 16.5 14.5 11.4 72 2.8 E 13 17 7 9 1021.3 1020.6 0.0
25/07:00am 14.7 12.4 10.5 76 2.2 ESE 13 15 7 8 1021.1 1020.4 0.0
25/06:30am 14.3 12.5 9.5 73 2.5 ESE 9 11 5 6 1020.7 1019.9 0.0
25/06:00am 14.3 12.0 8.9 70 2.8 ESE 11 13 6 7 1020.4 1019.6 0.0
25/05:30am 14.7 12.0 8.9 68 3.0 ESE 13 15 7 8 1020.1 1019.3 0.0
25/05:00am 14.7 11.7 7.7 63 3.5 ESE 13 15 7 8 1019.7 1019.0 0.0
25/04:30am 15.3 11.9 7.6 60 3.9 SE 15 17 8 9 1019.6 1018.9 0.0
25/04:00am 15.4 12.3 7.4 59 4.0 ESE 13 15 7 8 1019.4 1018.7 0.0
25/03:30am 15.5 13.0 6.5 55 4.5 ESE 9 11 5 6 1019.2 1018.5 0.0
25/03:00am 17.3 14.2 7.4 52 5.0 E 13 15 7 8 1019.2 1018.5 0.0
25/02:30am 18.1 14.2 6.9 48 5.7 E 17 22 9 12 1019.1 1018.4 0.0
25/02:00am 18.4 14.3 6.3 45 6.1 E 17 20 9 11 1019.2 1018.5 0.0
25/01:30am 18.8 14.3 6.0 43 6.4 E 19 24 10 13 1019.2 1018.5 0.0
25/01:00am 18.6 14.8 5.8 43 6.4 E 15 20 8 11 1019.3 1018.6 0.0
25/12:30am 19.0 15.3 6.2 43 6.5 E 15 20 8 11 1019.3 1018.6 0.0
25/12:00am 18.1 14.6 5.3 43 6.3 ESE 13 17 7 9 1019.2 1018.5 0.0
 
Date/Time
EST
Temp
°C
App
Temp
°C
Dew
Point
°C
Rel
Hum
%
Delta-T
°C
Wind Press
QNH
hPa
Press
MSL
hPa
Rain since
9am
mm
Dir  Spd
km/h
Gust
km/h
Spd
kts
Gust
kts
24/11:30pm 18.4 14.9 5.3 42 6.5 ESE 13 17 7 9 1019.3 1018.6 0.0
24/11:00pm 19.2 15.3 5.3 40 6.9 ESE 15 17 8 9 1019.3 1018.6 0.0
24/10:30pm 20.1 15.9 5.7 39 7.2 ESE 17 22 9 12 1019.1 1018.4 0.0
24/10:00pm 20.1 16.6 5.4 38 7.3 ESE 13 19 7 10 1019.0 1018.3 0.0
24/09:30pm 20.4 16.4 4.8 36 7.7 ESE 15 17 8 9 1019.0 1018.3 0.0
24/09:00pm 21.4 17.4 4.9 34 8.2 SE 15 19 8 10 1018.7 1018.0 0.0
24/08:30pm 21.9 17.9 4.9 33 8.5 SE 15 19 8 10 1018.5 1017.8 0.0
24/08:00pm 22.2 17.7 4.3 31 8.9 SE 17 20 9 11 1018.2 1017.5 0.0
24/07:30pm 22.9 18.7 3.9 29 9.4 SE 15 19 8 10 1017.9 1017.1 0.0
24/07:00pm 23.3 19.5 3.8 28 9.6 SE 13 19 7 10 1017.6 1016.8 0.0
24/06:30pm 23.6 19.9 2.4 25 10.3 SE 11 13 6 7 1017.3 1016.5 0.0
24/06:00pm 24.7 21.0 2.2 23 10.9 SE 11 15 6 8 1017.0 1016.2 0.0
24/05:30pm 26.2 21.3 2.2 21 11.8 SE 17 22 9 12 1016.6 1015.9 0.0
24/05:00pm 27.1 22.4 2.9 21 12.1 SE 17 20 9 11 1016.3 1015.6 0.0
24/04:30pm 27.7 22.4 2.0 19 12.7 SE 19 24 10 13 1016.2 1015.5 0.0
24/04:00pm 27.8 22.5 2.1 19 12.7 SE 19 26 10 14 1016.0 1015.3 0.0
24/03:30pm 28.1 23.0 3.0 20 12.7 ESE 19 26 10 14 1016.1 1015.4 0.0
24/03:00pm 28.3 23.4 3.9 21 12.5 ESE 19 24 10 13 1016.2 1015.5 0.0
24/02:30pm 28.0 23.1 5.0 23 12.0 ESE 20 28 11 15 1016.4 1015.7 0.0
24/02:00pm 27.8 23.1 6.0 25 11.5 ESE 20 32 11 17 1016.8 1016.0 0.0
24/01:30pm 27.6 22.8 5.8 25 11.5 SE 20 32 11 17 1017.4 1016.6 0.0
24/01:00pm 26.9 22.8 6.3 27 10.9 E 17 30 9 16 1017.9 1017.1 0.0
24/12:30pm 26.4 21.8 6.4 28 10.6 E 20 32 11 17 1018.5 1017.8 0.0
24/12:00pm 26.3 21.6 7.8 31 10.0 ENE 22 32 12 17 1019.1 1018.4 0.0
24/11:30am 25.6 20.7 8.6 34 9.3 ENE 24 33 13 18 1019.8 1019.1 0.0
24/11:00am 24.7 20.1 9.8 39 8.3 ENE 24 32 13 17 1020.4 1019.6 0.0
24/10:30am 23.3 18.9 10.4 44 7.2 ENE 24 35 13 19 1020.7 1019.9 0.0
24/10:00am 21.9 17.7 11.0 50 6.1 ENE 24 33 13 18 1021.0 1020.3 0.0
24/09:30am 20.3 17.0 11.5 57 4.9 ENE 20 28 11 15 1021.0 1020.3 0.0
24/09:00am 18.7 15.6 11.5 63 4.0 ENE 19 26 10 14 1020.9 1020.2 0.0
24/08:30am 17.6 15.2 11.4 67 3.4 ENE 15 20 8 11 1020.6 1019.8 0.0
24/08:00am 16.9 14.4 11.2 69 3.1 ENE 15 19 8 10 1020.2 1019.4 0.0
24/07:30am 15.7 14.2 10.5 71 2.8 ENE 9 11 5 6 1019.8 1019.1 0.0
24/07:00am 16.0 14.0 10.3 69 3.0 ENE 11 13 6 7 1019.4 1018.7 0.0
24/06:30am 15.8 14.1 9.7 67 3.2 ENE 9 13 5 7 1018.9 1018.2 0.0
24/06:00am 16.6 14.2 10.2 66 3.4 E 13 17 7 9 1018.4 1017.7 0.0
24/05:30am 16.7 14.3 9.9 64 3.6 ESE 13 17 7 9 1018.0 1017.2 0.0
24/05:00am 17.3 14.4 9.5 60 4.1 E 15 19 8 10 1017.8 1017.0 0.0
24/04:30am 17.9 15.0 9.8 59 4.3 E 15 20 8 11 1017.6 1016.8 0.0
24/04:00am 17.8 14.8 9.2 57 4.6 E 15 20 8 11 1017.5 1016.7 0.0
24/03:30am 17.1 13.9 8.5 57 4.5 E 15 19 8 10 1017.5 1016.7 0.0
24/03:00am 16.7 13.7 7.6 55 4.6 ESE 13 15 7 8 1017.6 1016.8 0.0
24/02:30am 16.7 13.5 6.8 52 5.0 ESE 13 15 7 8 1017.5 1016.7 0.0
24/02:00am 17.3 14.2 7.1 51 5.2 ESE 13 15 7 8 1017.6 1016.8 0.0
24/01:30am 18.0 14.4 6.8 48 5.7 ESE 15 17 8 9 1017.7 1016.9 0.0
24/01:00am 18.9 15.0 7.0 46 6.1 ESE 17 20 9 11 1017.6 1016.8 0.0
24/12:30am 19.5 16.0 7.3 45 6.3 SE 15 19 8 10 1017.6 1016.8 0.0
24/12:00am 19.3 16.1 6.8 44 6.4 ESE 13 15 7 8 1017.6 1016.8 0.0
 
Date/Time
EST
Temp
°C
App
Temp
°C
Dew
Point
°C
Rel
Hum
%
Delta-T
°C
Wind Press
QNH
hPa
Press
MSL
hPa
Rain since
9am
mm
Dir  Spd
km/h
Gust
km/h
Spd
kts
Gust
kts
23/11:30pm 19.9 16.3 6.6 42 6.8 ESE 15 19 8 10 1017.8 1017.0 0.0
23/11:00pm 20.3 16.2 6.3 40 7.1 ESE 17 20 9 11 1017.9 1017.1 0.0
23/10:30pm 20.1 16.7 6.1 40 7.1 ESE 13 17 7 9 1018.0 1017.2 0.0
23/10:00pm 20.5 17.1 6.1 39 7.3 ESE 13 17 7 9 1017.9 1017.1 0.0
23/09:30pm 20.6 17.2 5.8 38 7.5 SE 13 15 7 8 1017.9 1017.1 0.0
23/09:00pm 20.3 16.6 4.4 35 7.8 SE 13 15 7 8 1017.7 1016.9 0.0
23/08:30pm 19.7 15.5 1.7 30 8.3 ESE 13 15 7 8 1017.5 1016.7 0.0
23/08:00pm 19.1 14.8 -1.9 24 9.0 SSE 11 13 6 7 1017.2 1016.4 0.0
23/07:30pm 18.2 15.8 -3.2 23 8.9 CALM 0 6 0 3 1016.8 1016.0 0.0
23/07:00pm 21.0 18.6 -2.8 20 10.2 CALM 0 0 0 0 1016.3 1015.6 0.0
23/06:30pm 24.1 21.9 -1.7 18 11.6 CALM 0 0 0 0 1015.9 1015.2 0.0
23/06:00pm 26.7 23.2 -3.0 14 13.3 NW 6 7 3 4 1015.7 1015.0 0.0
23/05:30pm 28.5 24.8 -2.6 13 14.2 NW 7 9 4 5 1015.3 1014.5 0.0
23/05:00pm 28.4 24.4 -2.6 13 14.2 W 9 13 5 7 1015.1 1014.3 0.0
23/04:30pm 28.6 24.6 -2.5 13 14.3 SW 9 13 5 7 1014.9 1014.1 0.0
23/04:00pm 28.7 24.8 -1.4 14 14.1 SW 9 15 5 8 1015.0 1014.2 0.0
23/03:30pm 29.3 24.2 -1.9 13 14.6 WNW 15 24 8 13 1015.0 1014.2 0.0
23/03:00pm 30.1 24.9 -2.4 12 15.1 W 15 26 8 14 1015.0 1014.2 0.0
23/02:30pm 29.8 25.5 -1.5 13 14.8 W 11 15 6 8 1015.3 1014.5 0.0
23/02:00pm 29.4 24.7 1.0 16 13.9 W 15 20 8 11 1015.7 1015.0 0.0
23/01:30pm 28.9 24.8 -0.3 15 14.0 NNW 11 20 6 11 1016.2 1015.5 0.0
23/01:00pm 28.7 24.1 1.3 17 13.4 WNW 15 24 8 13 1016.6 1015.9 0.0
23/12:30pm 28.0 23.9 2.2 19 12.8 W 13 22 7 12 1017.2 1016.4 0.0
23/12:00pm 27.5 23.8 2.6 20 12.4 NW 11 19 6 10 1017.8 1017.0 0.0
23/11:30am 26.4 23.8 5.9 27 10.8 NNW 9 13 5 7 1018.2 1017.5 0.0
23/11:00am 25.2 22.7 8.2 34 9.2 N 11 19 6 10 1018.6 1017.9 0.0
23/10:30am 24.4 22.0 9.9 40 8.1 NNE 13 19 7 10 1018.8 1018.1 0.0
23/10:00am 22.4 19.9 11.2 49 6.3 NE 15 20 8 11 1018.9 1018.2 0.0
23/09:30am 20.7 18.7 11.6 56 5.1 NNE 13 19 7 10 1019.1 1018.4 0.0
23/09:00am 19.3 17.0 11.8 62 4.2 NE 15 20 8 11 1018.9 1018.2 0.0
23/08:30am 18.3 15.6 11.8 66 3.6 NE 17 24 9 13 1018.7 1018.0 0.0
23/08:00am 17.3 15.5 12.0 71 2.9 ENE 13 17 7 9 1018.4 1017.7 0.0
23/07:30am 15.9 14.3 11.7 76 2.3 ENE 11 15 6 8 1018.1 1017.4 0.0
23/07:00am 14.9 13.2 11.3 79 2.0 ENE 11 15 6 8 1017.8 1017.0 0.0
23/06:30am 15.3 13.6 11.3 77 2.2 NE 11 15 6 8 1017.7 1016.9 0.0
23/06:00am 16.0 13.7 11.6 75 2.4 ENE 15 19 8 10 1017.3 1016.5 0.0
23/05:30am 15.9 13.5 11.5 75 2.4 ENE 15 19 8 10 1017.0 1016.2 0.0
23/05:00am 16.3 13.9 11.5 73 2.6 ENE 15 17 8 9 1016.8 1016.0 0.0
23/04:30am 16.8 14.4 11.5 71 2.9 ENE 15 20 8 11 1016.6 1015.9 0.0
23/04:00am 17.3 15.0 11.8 70 3.1 ENE 15 19 8 10 1016.6 1015.9 0.0
23/03:30am 17.5 15.5 11.5 68 3.3 ENE 13 17 7 9 1016.5 1015.8 0.0
23/03:00am 17.9 15.1 11.5 66 3.5 NE 17 20 9 11 1016.5 1015.8 0.0
23/02:30am 18.3 15.1 11.1 63 4.0 ENE 19 24 10 13 1016.5 1015.8 0.0
23/02:00am 18.6 15.7 10.9 61 4.2 ENE 17 20 9 11 1016.6 1015.9 0.0
23/01:30am 19.2 17.1 11.0 59 4.5 ENE 13 20 7 11 1017.0 1016.2 0.0
23/01:00am 18.7 16.1 9.2 54 5.1 E 13 17 7 9 1017.1 1016.3 0.0
23/12:30am 19.4 15.8 8.4 49 5.8 ESE 17 22 9 12 1017.1 1016.3 0.0
23/12:00am 19.9 15.9 8.3 47 6.1 ESE 19 24 10 13 1017.0 1016.2 0.0
 
Date/Time
EST
Temp
°C
App
Temp
°C
Dew
Point
°C
Rel
Hum
%
Delta-T
°C
Wind Press
QNH
hPa
Press
MSL
hPa
Rain since
9am
mm
Dir  Spd
km/h
Gust
km/h
Spd
kts
Gust
kts
22/11:30pm 20.4 16.7 8.1 45 6.5 ESE 17 20 9 11 1017.1 1016.3 0.0
22/11:00pm 21.3 17.1 8.2 43 6.9 E 20 28 11 15 1017.3 1016.5 0.0
22/10:30pm 21.2 17.5 7.8 42 7.1 ESE 17 24 9 13 1017.3 1016.5 0.0
22/10:00pm 22.3 18.1 8.1 40 7.6 E 20 30 11 16 1017.1 1016.3 0.0
22/09:30pm 22.1 18.4 7.9 40 7.5 E 17 20 9 11 1017.2 1016.4 0.0
22/09:00pm 22.2 19.2 7.6 39 7.7 E 13 19 7 10 1017.2 1016.4 0.0
22/08:30pm 22.1 18.3 5.9 35 8.3 E 15 19 8 10 1017.1 1016.3 0.0
22/08:00pm 22.8 19.1 4.3 30 9.2 E 13 17 7 9 1016.6 1015.9 0.0
22/07:30pm 20.4 18.1 -2.6 21 9.8 CALM 0 11 0 6 1016.2 1015.5 0.0
22/07:00pm 23.1 19.5 -3.3 17 11.4 SW 6 11 3 6 1015.8 1015.1 0.0
22/06:30pm 25.6 23.8 1.0 20 11.8 CALM 0 0 0 0 1015.3 1014.5 0.0
22/06:00pm 27.5 25.9 2.6 20 12.4 CALM 0 6 0 3 1014.9 1014.1 0.0
22/05:30pm 29.5 27.4 1.9 17 13.8 ESE 2 7 1 4 1014.6 1013.8 0.0
22/05:00pm 29.9 28.4 3.0 18 13.7 CALM 0 6 0 3 1014.3 1013.5 0.0
22/04:30pm 29.6 26.0 2.8 18 13.6 ESE 11 17 6 9 1014.2 1013.4 0.0
22/04:00pm 29.8 27.1 3.7 19 13.5 SSE 7 15 4 8 1014.3 1013.5 0.0
22/03:30pm 29.8 27.1 3.7 19 13.5 S 7 13 4 7 1014.3 1013.5 0.0
22/03:00pm 29.8 28.0 3.7 19 13.5 S 2 9 1 5 1014.4 1013.6 0.0
22/02:30pm 28.7 25.6 3.5 20 12.9 ENE 9 20 5 11 1014.8 1014.0 0.0
22/02:00pm 28.4 25.0 4.0 21 12.5 E 11 20 6 11 1015.2 1014.4 0.0
22/01:30pm 28.6 26.2 4.2 21 12.6 NNW 6 13 3 7 1015.7 1015.0 0.0
22/01:00pm 28.1 24.8 4.4 22 12.2 ESE 11 17 6 9 1016.2 1015.5 0.0

Other Formats:

Comma delimited format used in spreadsheet applications
http://www.bom.gov.au/fwo/IDQ60801/IDQ60801.94343.axf

JavaScript Object Notation format (JSON) in row-major order
http://www.bom.gov.au/fwo/IDQ60801/IDQ60801.94343.json